CheckWX is a tool to help pilots better visualize weather data.  It is not intended as a substitute for an official pre-flight weather briefing.

07:04:49 UTC

2P2 METAR
Washington Island Airport
Washington Island, Wisconsin, USA
Current

10 mins ago

K2P2 170655Z AUTO 00000KT 4SM BR SCT110 04/04 A3000 RMK AO2 T00440044
Observed
Jun-17 @ 06:55 UTC
Visibility
4 SM
Flight Rules
MVFR
Conditions
Mist
Cloud Levels
  • Scattered at 11,000' AGL
Temperature
C / 39°F
Dewpoint
C / 39°F
Humidity
100%
Altimeter
30" Hg
Pressure
1015.92 hPa
Previous

30 mins ago

K2P2 170635Z AUTO 00000KT 10SM BKN110 05/05 A3000 RMK AO2 T00520051
Observed
Jun-17 @ 06:35 UTC
Visibility
10 SM
Flight Rules
VFR
Cloud Levels
  • Broken at 11,000' AGL
Temperature
C / 41°F
Dewpoint
C / 41°F
Humidity
100%
Altimeter
30" Hg
Pressure
1015.92 hPa
Previous

50 mins ago

K2P2 170615Z AUTO 00000KT 7SM OVC100 06/06 A3000 RMK AO2 T00560056
Observed
Jun-17 @ 06:15 UTC
Visibility
7 SM
Flight Rules
VFR
Cloud Levels
  • Overcast at 10,000' AGL
Temperature
C / 43°F
Dewpoint
C / 43°F
Humidity
100%
Altimeter
30" Hg
Pressure
1015.92 hPa